Terminal Aerodrome Forecast
Issued by NWS

Home | Current Version | Previous Version | Text Only | Print | Product List | Glossary Off
Versions: 1 2 3 4 5 6 7 8 9 10 11 12 13

000
FTUS44 KTSA 310500
TAFBVO
TAF
KBVO 310520Z 3106/0106 36008KT P6SM SKC
     FM311100 36008KT P6SM SCT020
     FM311500 01013G20KT P6SM SKC
     FM010000 00000KT P6SM SCT250=

USA.gov is the U.S. government's official web portal to all federal, state and local government web resources and services.